Saturday, August 29, 2015, 2:52 PM EDT

KW99, Petersburg, Grant County Airport

Location: Petersburg, WV, United States Lat: 38.983
Local Time: 2:52 PM EDT (18:52 GMT) Lon: -79.133
Time Zone: US/Eastern Elev: 961 ft

Show me the last for .
Show Decoded

2015-08-29 14:35 METAR KW99 291835Z AUTO 32003KT 10SM CLR 31/15 A3015 RMK AO2 T03050150 =
2015-08-29 14:15 METAR KW99 291815Z AUTO 33005KT 10SM SCT075 SCT085 31/15 A3016 RMK AO2 T03050154
                 =
2015-08-29 13:55 METAR KW99 291755Z AUTO 32003KT 10SM SCT070 BKN085 29/15 A3016 RMK AO2 T02900149
                 10309 20142 =
2015-08-29 13:15 METAR KW99 291715Z AUTO 02008KT 10SM SCT070 SCT085 31/16 A3017 RMK AO2 T03050157
                 =
2015-08-29 12:55 METAR KW99 291655Z AUTO 30004KT 10SM SCT090 SCT110 30/15 A3018 RMK AO2 T02970151
                 =
2015-08-29 12:35 METAR KW99 291635Z AUTO 28003KT 10SM SCT060 OVC080 29/16 A3019 RMK AO2 T02880159
                 =
2015-08-29 12:15 METAR KW99 291615Z AUTO 34003KT 10SM SCT065 BKN070 BKN080 29/16 A3020 RMK AO2
                 T02910162 =
2015-08-29 11:55 METAR KW99 291555Z AUTO 03003KT 10SM SCT065 SCT075 29/17 A3020 RMK AO2 T02910170
                 =
2015-08-29 11:35 METAR KW99 291535Z AUTO 09003KT 10SM CLR 28/17 A3021 RMK AO2 T02810173 =
2015-08-29 11:15 METAR KW99 291515Z AUTO 00000KT 10SM CLR 26/17 A3022 RMK AO2 T02610171 =
2015-08-29 10:55 METAR KW99 291455Z AUTO 00000KT 10SM CLR 25/17 A3022 RMK AO2 T02450171 =
2015-08-29 10:35 METAR KW99 291435Z AUTO 00000KT 10SM CLR 23/17 A3022 RMK AO2 T02340170 =
2015-08-29 10:15 METAR KW99 291415Z AUTO 00000KT 10SM CLR 23/17 A3022 RMK AO2 T02250167 =
2015-08-29 09:55 METAR KW99 291355Z AUTO 00000KT 10SM CLR 21/16 A3022 RMK AO2 T02080163 =
2015-08-29 09:35 METAR KW99 291335Z AUTO 00000KT 10SM CLR 20/16 A3022 RMK AO2 T01980160 =
2015-08-29 09:15 METAR KW99 291315Z AUTO 00000KT 10SM CLR 18/16 A3023 RMK AO2 T01820157 =
2015-08-29 08:55 METAR KW99 291255Z AUTO 00000KT 10SM CLR 17/15 A3023 RMK AO2 T01690152 =
2015-08-29 08:35 METAR KW99 291235Z AUTO 00000KT 7SM CLR 16/15 A3023 RMK AO2 T01600145 =
2015-08-29 08:15 METAR KW99 291215Z AUTO 00000KT 5SM BR CLR 15/14 A3023 RMK AO2 T01510142 =
2015-08-29 07:55 METAR KW99 291155Z AUTO 00000KT 5SM BR CLR 14/14 A3023 RMK AO2 T01410135 10150
                 20123 =
2015-08-29 07:35 METAR KW99 291135Z AUTO 00000KT 4SM BR CLR 13/13 A3023 RMK AO2 T01330130 =
2015-08-29 07:15 METAR KW99 291115Z AUTO 00000KT 4SM BR CLR 13/12 A3023 RMK AO2 T01270124 =
2015-08-29 06:55 METAR KW99 291055Z AUTO 00000KT 3SM BR CLR 13/12 A3022 RMK AO2 T01250123 =
2015-08-29 06:35 METAR KW99 291035Z AUTO 00000KT 4SM BR CLR 13/12 A3021 RMK AO2 T01250121 =
2015-08-29 06:15 METAR KW99 291015Z AUTO 00000KT 4SM BR CLR 13/12 A3021 RMK AO2 T01250122 =
2015-08-29 05:55 METAR KW99 290955Z AUTO 00000KT 4SM BR CLR 13/13 A3020 RMK AO2 T01290126 =
2015-08-29 05:15 METAR KW99 290915Z AUTO 00000KT 5SM BR CLR 13/13 A3020 RMK AO2 T01320127 =
2015-08-29 04:55 METAR KW99 290855Z AUTO 00000KT 5SM BR CLR 13/13 A3020 RMK AO2 T01330130 =
2015-08-29 04:35 METAR KW99 290835Z AUTO 00000KT 5SM BR CLR 13/13 A3020 RMK AO2 T01340130 =
2015-08-29 04:15 METAR KW99 290815Z AUTO 00000KT 5SM BR CLR 14/13 A3020 RMK AO2 T01370133 =
2015-08-29 03:55 METAR KW99 290755Z AUTO 00000KT 5SM BR CLR 14/13 A3020 RMK AO2 T01390134 =
2015-08-29 03:35 METAR KW99 290735Z AUTO 00000KT 5SM BR CLR 14/14 A3020 RMK AO2 T01390135 =
2015-08-29 03:15 METAR KW99 290715Z AUTO 00000KT 5SM BR CLR 14/14 A3020 RMK AO2 T01420140 =
2015-08-29 02:55 METAR KW99 290655Z AUTO 00000KT 2SM BR CLR 15/15 A3020 RMK AO2 T01470145 =
2015-08-29 02:35 METAR KW99 290635Z AUTO 00000KT 5SM BR CLR 15/14 A3021 RMK AO2 T01460141 =
2015-08-29 02:15 METAR KW99 290615Z AUTO 00000KT 5SM BR CLR 15/14 A3020 RMK AO2 T01460142 =
2015-08-29 01:55 METAR KW99 290555Z AUTO 00000KT 5SM BR CLR 15/14 A3021 RMK AO2 T01500143 10225
                 20150 402980122 =
2015-08-29 01:35 METAR KW99 290535Z AUTO 00000KT 7SM CLR 15/15 A3021 RMK AO2 T01540146 =
2015-08-29 01:15 METAR KW99 290515Z AUTO 00000KT 7SM CLR 15/15 A3021 RMK AO2 T01530145 =
2015-08-29 00:55 METAR KW99 290455Z AUTO 00000KT 10SM CLR 16/15 A3021 RMK AO2 T01600150 =
2015-08-29 00:35 METAR KW99 290435Z AUTO 00000KT 10SM CLR 16/15 A3021 RMK AO2 T01600150 =
2015-08-29 00:15 METAR KW99 290415Z AUTO 00000KT 7SM CLR 17/16 A3021 RMK AO2 T01660159 =
2015-08-28 23:55 METAR KW99 290355Z AUTO 00000KT 7SM CLR 17/16 A3021 RMK AO2 T01700164 =
2015-08-28 23:35 METAR KW99 290335Z AUTO 00000KT 10SM CLR 17/16 A3021 RMK AO2 T01720158 =
2015-08-28 22:55 METAR KW99 290255Z AUTO 00000KT 10SM CLR 18/16 A3021 RMK AO2 T01780159 =
2015-08-28 22:35 METAR KW99 290235Z AUTO 30004KT 10SM CLR 18/16 A3020 RMK AO2 T01800161 =
2015-08-28 22:15 METAR KW99 290215Z AUTO 00000KT 10SM CLR 18/16 A3019 RMK AO2 T01840164 =
2015-08-28 21:15 METAR KW99 290115Z AUTO 30004KT 10SM BKN065 20/17 A3018 RMK AO2 T02040167 =
2015-08-28 20:55 METAR KW99 290055Z AUTO 00000KT 10SM BKN065 21/17 A3018 RMK AO2 T02090170 =
2015-08-28 20:35 METAR KW99 290035Z AUTO 00000KT 10SM SCT065 23/17 A3017 RMK AO2 T02250167 =
2015-08-28 20:15 METAR KW99 290015Z AUTO 30005KT 10SM BKN065 BKN085 22/17 A3016 RMK AO2 T02180173
                 =
2015-08-28 19:55 METAR KW99 282355Z AUTO 00000KT 10SM BKN065 BKN075 23/18 A3015 RMK AO2 T02260177
                 10298 20226 =
2015-08-28 19:35 METAR KW99 282335Z AUTO 00000KT 10SM BKN065 BKN090 25/17 A3015 RMK AO2 T02450166
                 =
2015-08-28 19:15 METAR KW99 282315Z AUTO 00000KT 10SM SCT075 SCT090 24/17 A3014 RMK AO2 T02440171
                 =
2015-08-28 18:55 METAR KW99 282255Z AUTO 00000KT 10SM SCT075 BKN090 25/17 A3014 RMK AO2 T02510169
                 =
2015-08-28 18:35 METAR KW99 282235Z AUTO 00000KT 10SM OVC075 27/15 A3014 RMK AO2 T02700147 =
2015-08-28 18:15 METAR KW99 282215Z AUTO 03004KT 10SM OVC075 28/15 A3013 RMK AO2 T02760145 =
2015-08-28 17:55 METAR KW99 282155Z AUTO 00000KT 10SM BKN075 BKN085 29/14 A3013 RMK AO2 T02860138
                 =
2015-08-28 17:35 METAR KW99 282135Z AUTO 00000KT 10SM SCT075 SCT085 29/14 A3013 RMK AO2 T02870137
                 =
2015-08-28 17:15 METAR KW99 282115Z AUTO 07004KT 10SM SCT070 28/14 A3013 RMK AO2 T02820137 =
2015-08-28 16:55 METAR KW99 282055Z AUTO 00000KT 10SM SCT070 30/14 A3013 RMK AO2 T02950135 =
2015-08-28 16:35 METAR KW99 282035Z AUTO 00000KT 10SM CLR 29/13 A3014 RMK AO2 T02890133 =
2015-08-28 16:15 METAR KW99 282015Z AUTO 00000KT 10SM CLR 29/14 A3014 RMK AO2 T02940140 =
2015-08-28 15:55 METAR KW99 281955Z AUTO 00000KT 10SM CLR 29/13 A3014 RMK AO2 T02850131 =
2015-08-28 15:35 METAR KW99 281935Z AUTO 09003KT 10SM CLR 29/14 A3014 RMK AO2 T02900138 =
2015-08-28 15:15 METAR KW99 281915Z AUTO 00000KT 10SM CLR 28/14 A3016 RMK AO2 T02820144 =
2015-08-28 14:55 METAR KW99 281855Z AUTO 05005KT 10SM CLR 29/14 A3016 RMK AO2 T02850141 =

Support USWX by starting your Amazon purchase here.